Yellow Springs, Ohio
Current Conditions -  °F | °C
As of 2:56 PM on Saturday 25 Oct 2014 (Local Time) from KSGH Reporting Station
Clear Clear  
Wind Chill: 72°   Ceiling: Unl
Heat Index: 72°   Visibility: 8mi
Dew Point: 57°   Wind: 13mph
Humidity: 59%   Direction: 250°WSW
Pressure: 29.9"   Gusts: 22mph
Location:  39.81°N, 83.89°W
Report Text: KSGH 251856Z AUTO 25011G19KT 8SM CLR 22/14 A2990 RMK AO2 T02220138 SLP122
Loading
Personal Weather Stations






























Interactive Weather Map
Tropical Storm Tracking
New forecast layout! Learn more

10-Day Weather Forecast

Advertisements
Track Severe Weather on mobile